Time;durP1;ratioP1;P1;durP2;ratioP2;P2;SDS_P1;SDS_P2;PMS_P1;PMS_P2;Temp;Humidity;BMP_temperature;BMP_pressure;BME280_temperature;BME280_humidity;BME280_pressure;Samples;Min_cycle;Max_cycle;Signal;HPM_P1;HPM_P2
2022/03/19 00:00:14;;;;;;;8.50;4.80;;;10.20;61.10;;;13.09;48.48;104642.09;4999668;28;20202;-53
2022/03/19 00:02:43;;;;;;;10.20;4.67;;;10.20;61.20;;;13.07;48.82;104641.34;5012447;28;20202;-52
2022/03/19 00:05:12;;;;;;;10.17;5.33;;;10.20;61.20;;;13.06;48.79;104643.16;5015734;28;20294;-50
2022/03/19 00:07:42;;;;;;;11.10;4.63;;;10.20;61.40;;;13.05;48.97;104648.50;5010793;28;20693;-52
2022/03/19 00:10:10;;;;;;;10.87;4.67;;;10.10;61.70;;;13.05;48.67;104646.69;4996442;28;20197;-49
2022/03/19 00:12:39;;;;;;;10.43;5.00;;;10.20;62.40;;;13.04;48.77;104652.94;4997307;28;20206;-51
2022/03/19 00:15:09;;;;;;;14.17;5.63;;;10.10;61.40;;;13.04;48.92;104647.66;4997001;28;20635;-50
2022/03/19 00:17:36;;;;;;;12.67;4.87;;;10.10;61.80;;;13.03;49.10;104653.00;4996972;28;20242;-50
2022/03/19 00:20:05;;;;;;;10.30;3.90;;;10.10;61.80;;;13.02;49.37;104654.84;4997786;28;20538;-52
2022/03/19 00:22:36;;;;;;;13.17;5.77;;;10.10;61.70;;;13.00;49.11;104661.16;4997644;28;20274;-50
2022/03/19 00:25:04;;;;;;;10.67;4.53;;;10.10;62.00;;;12.99;49.18;104656.81;4998935;28;20216;-53
2022/03/19 00:27:31;;;;;;;11.77;4.47;;;10.10;62.00;;;12.98;49.18;104657.75;4998231;28;20228;-51
2022/03/19 00:29:59;;;;;;;9.63;5.00;;;10.10;61.90;;;12.96;49.27;104654.34;4999381;28;20199;-50
2022/03/19 00:32:26;;;;;;;12.27;4.53;;;10.00;61.90;;;12.95;49.41;104658.78;5009559;28;20240;-52
2022/03/19 00:34:54;;;;;;;8.60;4.80;;;10.10;62.10;;;12.95;49.41;104658.78;5017976;28;20187;-51
2022/03/19 00:37:21;;;;;;;10.27;4.90;;;10.10;62.20;;;12.95;49.02;104656.16;5016585;28;20217;-52
2022/03/19 00:39:50;;;;;;;9.23;4.93;;;10.10;62.00;;;12.97;49.04;104659.56;5012842;28;20371;-50
2022/03/19 00:42:17;;;;;;;15.63;4.83;;;10.10;62.20;;;12.95;49.00;104661.44;5016084;28;20191;-50
2022/03/19 00:44:47;;;;;;;10.70;4.80;;;10.10;61.70;;;12.95;48.96;104658.78;5017070;28;20221;-51
2022/03/19 00:47:14;;;;;;;12.97;5.50;;;10.10;61.90;;;12.95;49.15;104652.66;5016265;28;20245;-51
2022/03/19 00:49:41;;;;;;;8.33;4.43;;;10.10;61.80;;;12.93;49.05;104650.94;5015091;28;20191;-52
2022/03/19 00:52:09;;;;;;;10.77;4.27;;;10.10;61.70;;;12.93;48.94;104649.25;5017382;28;20195;-51
2022/03/19 00:54:36;;;;;;;11.10;4.80;;;10.10;61.50;;;12.93;48.90;104643.00;5016852;28;20283;-50
2022/03/19 00:57:05;;;;;;;9.67;4.93;;;10.10;61.50;;;12.97;48.91;104645.47;5012116;28;20681;-50
2022/03/19 00:59:32;;;;;;;10.67;4.47;;;10.00;60.90;;;12.94;48.96;104643.84;5014475;28;20195;-49
2022/03/19 01:01:59;;;;;;;10.53;4.67;;;10.10;61.30;;;12.95;49.13;104645.56;5014232;28;20206;-51
2022/03/19 01:04:27;;;;;;;12.97;5.30;;;10.00;61.60;;;12.95;49.03;104632.34;5013799;28;20211;-50
2022/03/19 01:06:54;;;;;;;8.70;4.37;;;10.10;61.10;;;12.95;48.19;104639.44;5013457;28;20582;-49
2022/03/19 01:09:21;;;;;;;11.03;3.60;;;10.00;60.70;;;12.91;48.67;104639.59;5014214;28;20195;-52
2022/03/19 01:11:49;;;;;;;13.10;4.77;;;10.00;61.00;;;12.89;48.61;104641.50;5011015;28;20199;-51
2022/03/19 01:14:17;;;;;;;9.73;4.20;;;10.00;61.30;;;12.87;48.56;104640.75;4994343;28;20301;-52
2022/03/19 01:16:45;;;;;;;12.43;4.70;;;10.00;61.40;;;12.85;48.92;104637.34;4994215;28;20610;-50
2022/03/19 01:19:12;;;;;;;13.17;5.83;;;10.00;61.50;;;12.84;48.46;104637.44;4994226;28;20518;-49
2022/03/19 01:21:40;;;;;;;9.77;4.93;;;9.90;61.90;;;12.79;48.04;104637.72;4993921;28;20769;-51
2022/03/19 01:24:07;;;;;;;14.13;5.33;;;9.90;61.90;;;12.72;48.53;104646.09;4993458;28;20216;-52
2022/03/19 01:26:35;;;;;;;11.83;5.30;;;9.80;62.70;;;12.67;48.48;104642.91;4993638;28;20247;-49
2022/03/19 01:29:02;;;;;;;11.50;4.87;;;9.70;62.90;;;12.63;48.94;104646.66;5004247;28;20191;-51
2022/03/19 01:31:30;;;;;;;13.23;4.90;;;9.70;63.10;;;12.61;49.22;104635.31;5013437;28;20738;-50
2022/03/19 01:33:58;;;;;;;13.77;5.77;;;9.70;63.50;;;12.60;49.30;104641.56;5013749;28;20199;-50
2022/03/19 01:36:25;;;;;;;12.20;5.00;;;9.60;63.20;;;12.56;48.98;104629.47;5013729;28;20196;-50
2022/03/19 01:38:52;;;;;;;12.97;4.57;;;9.60;63.20;;;12.53;49.33;104637.56;5015418;28;20206;-50
2022/03/19 01:41:20;;;;;;;13.73;5.80;;;9.60;63.50;;;12.50;49.49;104633.34;5018550;28;20274;-51
2022/03/19 01:43:47;;;;;;;8.93;4.33;;;9.60;63.50;;;12.50;49.12;104629.84;5017765;28;20338;-49
2022/03/19 01:46:14;;;;;;;10.90;4.77;;;9.60;63.40;;;12.46;49.11;104638.88;5000935;28;20200;-55
2022/03/19 01:48:43;;;;;;;11.60;4.80;;;9.60;63.20;;;12.42;49.27;104629.44;4999377;28;20209;-50
2022/03/19 01:51:10;;;;;;;12.33;5.50;;;9.50;63.30;;;12.37;49.56;104628.84;4999698;28;20214;-51
2022/03/19 01:53:38;;;;;;;12.67;4.70;;;9.50;63.50;;;12.35;49.71;104620.16;4998993;28;20198;-51
2022/03/19 01:56:07;;;;;;;11.87;5.10;;;9.50;63.40;;;12.32;49.88;104626.47;4998213;28;20196;-50
2022/03/19 01:58:35;;;;;;;12.10;5.10;;;9.50;63.80;;;12.32;49.85;104630.91;4998996;28;20196;-50
2022/03/19 02:01:03;;;;;;;13.37;5.50;;;9.50;63.90;;;12.30;49.53;104633.66;4998851;28;20198;-49
2022/03/19 02:03:31;;;;;;;12.33;5.60;;;9.50;63.60;;;12.30;49.80;104648.63;4997360;28;20232;-49
2022/03/19 02:06:01;;;;;;;13.53;5.37;;;9.50;63.30;;;12.28;49.54;104647.88;4997816;28;20315;-53
2022/03/19 02:08:29;;;;;;;11.97;5.67;;;9.50;63.30;;;12.24;49.74;104644.59;4997780;28;20210;-53
2022/03/19 02:10:56;;;;;;;15.77;5.53;;;9.40;63.40;;;12.21;49.81;104635.03;4997498;28;20596;-51
2022/03/19 02:13:23;;;;;;;11.90;4.60;;;9.40;63.30;;;12.19;49.66;104644.00;4997542;28;20592;-51
2022/03/19 02:15:51;;;;;;;14.70;5.33;;;9.40;63.10;;;12.14;49.37;104638.13;4997371;28;20188;-49
2022/03/19 02:18:18;;;;;;;12.30;4.67;;;9.30;62.60;;;12.03;49.22;104636.09;5009989;28;20656;-50
2022/03/19 02:20:45;;;;;;;10.20;4.80;;;9.20;63.00;;;11.94;48.98;104646.31;5016784;28;20608;-50
2022/03/19 02:26:10;;;;;;;13.13;5.27;;;9.00;62.50;;;11.71;49.82;104644.97;5016653;28;20277;-49
2022/03/19 02:28:37;;;;;;;11.70;5.40;;;8.90;63.40;;;11.66;49.62;104640.84;5016628;28;20207;-51
2022/03/19 02:31:04;;;;;;;13.97;4.87;;;8.80;63.10;;;11.61;49.41;104637.63;5016906;28;20194;-52
2022/03/19 02:33:32;;;;;;;11.50;4.90;;;8.70;63.10;;;11.57;49.85;104639.59;5011505;28;20195;-50
2022/03/19 02:35:59;;;;;;;10.40;5.13;;;8.70;64.20;;;11.55;50.29;104644.94;5001771;28;20234;-50
2022/03/19 02:38:28;;;;;;;10.50;4.93;;;8.60;64.10;;;11.54;50.24;104639.75;5015249;28;20207;-50
2022/03/19 02:40:55;;;;;;;9.70;5.00;;;8.60;64.20;;;11.54;50.87;104637.13;5016392;28;20658;-50
2022/03/19 02:43:23;;;;;;;14.43;5.17;;;8.60;65.10;;;11.54;50.71;104645.03;5016822;28;20695;-50
2022/03/19 02:45:50;;;;;;;11.30;5.13;;;8.60;64.70;;;11.54;50.24;104632.69;5016618;28;20561;-51
2022/03/19 02:48:17;;;;;;;10.07;5.43;;;8.60;64.50;;;11.54;50.79;104631.84;5017318;28;20207;-51
2022/03/19 02:50:45;;;;;;;10.80;5.13;;;8.60;64.70;;;11.54;50.78;104637.13;5016084;28;20195;-50
2022/03/19 02:53:12;;;;;;;13.17;5.50;;;8.70;64.50;;;11.54;50.54;104642.38;5017171;28;20183;-49
2022/03/19 02:55:42;;;;;;;14.33;6.13;;;8.60;65.00;;;11.54;51.10;104639.75;5015988;28;20195;-51
2022/03/19 02:58:10;;;;;;;10.40;5.30;;;8.70;65.30;;;11.56;50.73;104635.22;5016445;28;20225;-50
2022/03/19 03:00:38;;;;;;;15.17;5.40;;;8.70;65.00;;;11.58;50.91;104638.63;5015995;28;20250;-50
2022/03/19 03:03:06;;;;;;;9.57;4.97;;;8.70;64.50;;;11.62;50.26;104639.34;5016208;28;20207;-50
2022/03/19 03:05:35;;;;;;;10.97;4.80;;;8.70;64.60;;;11.62;50.65;104637.56;5015417;28;20226;-50
2022/03/19 03:08:04;;;;;;;11.10;4.30;;;8.80;64.60;;;11.66;50.29;104636.44;4996826;28;20219;-49
2022/03/19 03:10:33;;;;;;;9.93;5.33;;;8.80;64.30;;;11.68;50.08;104639.88;4996304;28;20196;-49
2022/03/19 03:13:02;;;;;;;11.30;5.30;;;8.80;64.30;;;11.68;50.40;104629.31;4996225;28;20192;-51
2022/03/19 03:15:30;;;;;;;12.03;5.07;;;8.80;64.00;;;11.67;49.59;104632.00;4996393;28;20184;-50
2022/03/19 03:18:01;;;;;;;12.73;5.63;;;8.80;63.50;;;11.64;49.44;104638.31;4995833;28;20223;-49
2022/03/19 03:20:28;;;;;;;12.50;5.50;;;8.80;63.50;;;11.60;49.93;104626.19;4996439;28;20192;-51
2022/03/19 03:22:55;;;;;;;10.93;5.00;;;8.70;63.10;;;11.54;49.72;104639.75;5005130;28;20195;-51
2022/03/19 03:25:23;;;;;;;17.13;5.60;;;8.70;63.50;;;11.49;49.48;104640.00;5015688;28;20222;-50
2022/03/19 03:27:51;;;;;;;12.97;5.60;;;8.60;63.50;;;11.44;49.85;104636.75;5015348;28;20688;-52
2022/03/19 03:30:20;;;;;;;14.60;5.60;;;8.60;63.90;;;11.41;49.78;104641.38;5015644;28;20191;-50
2022/03/19 03:32:48;;;;;;;9.47;4.33;;;8.60;63.90;;;11.38;50.21;104646.81;5015221;28;20250;-52
2022/03/19 03:35:15;;;;;;;8.70;4.90;;;8.50;63.90;;;11.37;50.39;104639.81;5016120;28;20184;-50
2022/03/19 03:37:43;;;;;;;12.57;5.50;;;8.50;64.00;;;11.36;50.77;104649.50;5015238;28;20239;-50
2022/03/19 03:40:11;;;;;;;12.80;5.20;;;8.50;64.60;;;11.36;50.15;104648.69;4998089;28;20554;-50
2022/03/19 03:42:40;;;;;;;14.50;5.07;;;8.50;64.40;;;11.35;49.83;104653.09;4995374;28;20196;-52
2022/03/19 03:45:10;;;;;;;13.00;5.07;;;8.50;64.40;;;11.32;50.30;104647.13;4995113;28;20211;-52
2022/03/19 03:47:39;;;;;;;13.57;5.53;;;8.50;64.00;;;11.27;50.11;104654.41;4995297;28;20211;-49
2022/03/19 03:50:08;;;;;;;12.03;5.47;;;8.50;64.00;;;11.26;50.44;104652.75;4995273;28;20200;-50
2022/03/19 03:52:36;;;;;;;13.37;5.60;;;8.40;64.20;;;11.25;50.38;104656.28;4995029;28;20200;-50
2022/03/19 03:55:07;;;;;;;10.27;5.53;;;8.40;63.80;;;11.23;50.28;104652.91;5000028;28;20511;-51
2022/03/19 03:57:35;;;;;;;13.10;6.07;;;8.40;64.80;;;11.25;50.21;104661.56;5013638;28;20219;-52
2022/03/19 04:00:05;;;;;;;13.83;5.40;;;8.40;64.70;;;11.23;50.51;104651.13;5014117;28;20191;-51
2022/03/19 04:02:32;;;;;;;13.50;5.77;;;8.40;64.90;;;11.28;50.34;104653.50;5013090;28;20286;-50
2022/03/19 04:05:01;;;;;;;13.13;5.57;;;8.40;63.60;;;11.27;49.81;104654.41;5013347;28;20222;-50
2022/03/19 04:07:29;;;;;;;13.47;5.67;;;8.40;64.00;;;11.25;50.50;104648.38;5013092;28;20628;-53
2022/03/19 04:09:56;;;;;;;9.47;5.13;;;8.30;64.10;;;11.22;50.23;104652.03;5013316;28;20194;-49
2022/03/19 04:12:23;;;;;;;9.83;5.47;;;8.30;64.50;;;11.24;50.38;104644.06;5012732;28;20203;-51
2022/03/19 04:14:52;;;;;;;10.23;5.60;;;8.30;64.20;;;11.23;50.03;104653.75;5013794;28;20190;-51
2022/03/19 04:17:20;;;;;;;10.80;5.87;;;8.30;64.20;;;11.21;49.95;104650.34;5019198;28;20233;-50
2022/03/19 04:19:47;;;;;;;10.30;5.23;;;8.30;63.90;;;11.22;50.26;104651.22;5013617;28;20205;-50
2022/03/19 04:22:15;;;;;;;12.33;4.83;;;8.40;64.10;;;11.26;49.99;104647.47;5013515;28;20282;-49
2022/03/19 04:24:43;;;;;;;10.20;5.30;;;8.40;63.80;;;11.23;49.82;104652.91;5013962;28;20187;-50
2022/03/19 04:27:10;;;;;;;12.13;5.77;;;8.40;63.70;;;11.22;50.07;104651.22;5012716;28;20207;-50
2022/03/19 04:29:38;;;;;;;10.23;6.00;;;8.40;63.50;;;11.18;49.76;104655.78;5013875;28;20710;-51
2022/03/19 04:32:06;;;;;;;9.87;4.93;;;8.40;63.00;;;11.13;49.56;104655.16;5013666;28;20522;-51
2022/03/19 04:34:34;;;;;;;14.63;6.03;;;8.30;63.30;;;11.12;50.16;104655.25;5012239;28;20195;-50
2022/03/19 04:37:01;;;;;;;9.47;5.83;;;8.30;63.30;;;11.07;49.44;104652.88;5013483;28;20214;-50
2022/03/19 04:39:30;;;;;;;13.13;5.10;;;8.30;63.30;;;11.05;49.93;104643.34;5013576;28;20202;-50
2022/03/19 04:41:57;;;;;;;8.60;5.47;;;8.20;63.30;;;10.99;50.08;104648.91;5013544;28;20553;-50
2022/03/19 04:44:24;;;;;;;10.60;5.30;;;8.20;62.90;;;10.94;49.87;104643.03;5002594;28;20203;-50
2022/03/19 04:46:52;;;;;;;9.17;5.90;;;8.20;62.90;;;10.91;49.28;104645.84;4993750;28;20234;-50
2022/03/19 04:49:19;;;;;;;13.10;6.00;;;8.10;62.90;;;10.84;49.62;104640.88;4998580;28;20200;-52
2022/03/19 04:51:49;;;;;;;15.13;6.03;;;8.00;63.10;;;10.79;50.16;104642.91;4999604;28;20199;-53
2022/03/19 04:54:16;;;;;;;12.47;5.63;;;8.00;63.60;;;10.77;50.00;104647.41;4998802;28;20263;-52
2022/03/19 04:56:46;;;;;;;13.30;5.80;;;8.00;63.50;;;10.74;49.85;104634.38;4998925;28;20208;-52
2022/03/19 04:59:15;;;;;;;12.43;5.97;;;7.90;63.40;;;10.72;50.28;104636.25;5001747;28;20298;-50
2022/03/19 05:01:42;;;;;;;11.20;6.07;;;7.90;63.40;;;10.69;49.65;104646.97;5018412;28;20282;-52
2022/03/19 05:04:09;;;;;;;11.77;5.90;;;7.90;63.40;;;10.68;49.89;104645.25;5015345;28;20191;-51
2022/03/19 05:06:37;;;;;;;14.27;6.80;;;7.90;63.30;;;10.65;49.79;104652.47;5013205;28;20290;-50
2022/03/19 05:11:52;;;;;;;10.83;6.30;;;7.80;63.80;;;10.57;49.80;104649.38;5013456;28;20229;-50
2022/03/19 05:14:19;;;;;;;12.33;6.27;;;7.70;63.30;;;10.54;50.68;104653.00;5015245;28;20270;-50
2022/03/19 05:16:47;;;;;;;14.60;6.13;;;7.70;63.60;;;10.53;50.52;104656.56;5001377;28;20227;-50
2022/03/19 05:19:14;;;;;;;10.80;5.63;;;7.70;64.00;;;10.55;50.50;104654.72;4997465;28;20195;-51
2022/03/19 05:21:41;;;;;;;11.70;6.33;;;7.70;63.40;;;10.53;50.25;104655.72;4997820;28;20586;-53
2022/03/19 05:24:08;;;;;;;12.73;6.03;;;7.70;63.40;;;10.49;49.51;104649.75;4997282;28;20202;-51
2022/03/19 05:26:36;;;;;;;12.07;6.07;;;7.60;63.10;;;10.44;49.51;104646.47;4997156;28;20220;-50
2022/03/19 05:29:05;;;;;;;10.00;6.10;;;7.60;63.40;;;10.39;50.31;104651.13;4997419;28;20192;-52
2022/03/19 05:31:37;;;;;;;11.60;6.87;;;7.50;63.50;;;10.36;50.09;104659.19;5001926;28;20297;-52
2022/03/19 05:36:50;;;;;;;20.20;8.20;;;7.50;63.90;;;10.34;50.39;104647.88;4996855;28;20213;-50
2022/03/19 05:39:17;;;;;;;14.23;6.77;;;7.50;64.80;;;10.36;50.60;104643.41;4997166;28;20200;-52
2022/03/19 05:41:45;;;;;;;11.37;5.93;;;7.50;64.80;;;10.40;50.32;104644.94;4997297;28;20278;-52
2022/03/19 05:44:13;;;;;;;9.67;5.90;;;7.60;64.20;;;10.43;50.21;104639.53;4996999;28;20196;-50
2022/03/19 05:46:41;;;;;;;10.67;6.20;;;7.60;63.90;;;10.44;50.21;104638.59;4996699;28;20239;-51
2022/03/19 05:49:09;;;;;;;10.50;6.07;;;7.60;63.90;;;10.44;50.62;104641.22;5012467;28;20206;-50
2022/03/19 05:51:36;;;;;;;12.40;6.30;;;7.60;64.00;;;10.48;49.69;104645.44;5016503;28;20577;-50
2022/03/19 05:54:04;;;;;;;11.87;5.57;;;7.60;63.50;;;10.50;49.75;104643.56;5015286;28;20577;-51
2022/03/19 05:56:31;;;;;;;15.23;6.23;;;7.60;63.50;;;10.50;50.18;104646.19;5016160;28;20565;-51
2022/03/19 05:58:59;;;;;;;14.30;6.17;;;7.60;64.50;;;10.54;50.16;104641.59;5017001;28;20198;-52
2022/03/19 06:01:27;;;;;;;16.50;6.03;;;7.60;64.60;;;10.58;49.92;104638.72;5017421;28;20213;-50
2022/03/19 06:03:56;;;;;;;14.10;6.17;;;7.70;64.00;;;10.63;50.26;104646.41;5010494;28;20270;-52
2022/03/19 06:06:24;;;;;;;14.90;6.37;;;7.70;63.50;;;10.64;50.30;104633.16;4996203;28;20216;-51
2022/03/19 06:08:52;;;;;;;12.13;5.90;;;7.80;63.80;;;10.69;49.61;104646.97;4995359;28;20208;-49
2022/03/19 06:11:19;;;;;;;13.00;6.20;;;7.80;63.10;;;10.71;49.31;104639.81;4996732;28;20204;-53
2022/03/19 06:13:47;;;;;;;7.83;5.20;;;7.70;62.80;;;10.70;49.54;104642.53;4996695;28;20196;-52
2022/03/19 06:16:14;;;;;;;12.17;6.63;;;7.70;63.20;;;10.69;49.77;104639.06;4995879;28;20207;-53
2022/03/19 06:18:49;;;;;;;13.17;6.57;;;7.70;63.30;;;10.72;49.36;104633.59;4995170;28;20235;-50
2022/03/19 06:21:19;;;;;;;12.33;6.10;;;7.70;63.20;;;10.71;49.41;104638.97;4995553;28;20654;-51
2022/03/19 06:23:46;;;;;;;9.43;5.97;;;7.70;63.00;;;10.67;49.25;104643.53;4995076;28;20192;-52
2022/03/19 06:26:14;;;;;;;11.13;5.40;;;7.60;62.80;;;10.62;48.80;104632.41;4994411;28;20211;-50
2022/03/19 06:28:42;;;;;;;12.50;4.87;;;7.60;63.00;;;10.58;49.23;104636.09;4994861;28;20601;-53
2022/03/19 06:31:09;;;;;;;10.53;6.43;;;7.50;63.00;;;10.57;49.05;104633.56;4995777;28;20199;-51
2022/03/19 06:33:40;;;;;;;7.80;5.83;;;7.50;63.70;;;10.55;49.45;104631.00;5015184;28;20253;-50
2022/03/19 06:38:55;;;;;;;12.17;6.37;;;7.50;63.90;;;10.52;49.64;104636.44;5015308;28;20191;-50
2022/03/19 06:41:23;;;;;;;10.30;5.90;;;7.40;64.00;;;10.51;49.39;104637.34;5014940;28;20657;-51
2022/03/19 06:43:51;;;;;;;12.37;6.27;;;7.40;64.70;;;10.49;49.39;104641.84;5014689;28;20198;-54
2022/03/19 06:46:20;;;;;;;11.70;6.57;;;7.40;63.80;;;10.47;49.15;104635.81;5014055;28;20242;-50
2022/03/19 06:48:49;;;;;;;10.77;5.93;;;7.40;64.10;;;10.46;49.39;104635.91;5014709;28;20199;-51
2022/03/19 06:51:19;;;;;;;12.37;6.33;;;7.40;64.20;;;10.44;49.82;104641.22;5014814;28;20192;-50
2022/03/19 06:53:48;;;;;;;10.97;6.70;;;7.40;64.70;;;10.49;49.92;104639.22;4998512;28;20184;-51
2022/03/19 06:56:16;;;;;;;12.40;6.37;;;7.40;64.70;;;10.56;49.81;104635.34;4994646;28;20188;-50
2022/03/19 06:58:43;;;;;;;9.23;5.47;;;7.40;64.70;;;10.64;49.58;104648.97;4994820;28;20184;-50
2022/03/19 07:01:15;;;;;;;13.37;6.00;;;7.50;64.70;;;10.83;50.38;104652.38;4995577;28;20192;-50
2022/03/19 07:03:45;;;;;;;9.97;5.73;;;7.60;65.20;;;11.06;49.50;104637.13;5014067;28;20273;-49
2022/03/19 07:06:15;;;;;;;10.90;5.97;;;7.80;65.00;;;11.38;49.06;104644.16;5013725;28;20219;-50
2022/03/19 07:09:05;;;;;;;8.43;5.60;;;8.00;64.80;;;11.77;49.08;104639.34;5005691;28;20271;-49
2022/03/19 07:11:35;;;;;;;7.23;5.10;;;8.20;63.90;;;12.18;48.38;104635.22;4994665;28;20563;-51
2022/03/19 07:14:05;;;;;;;8.67;5.57;;;8.50;63.90;;;12.69;48.17;104641.84;4994682;28;20215;-53
2022/03/19 07:16:33;;;;;;;11.67;5.77;;;8.80;63.70;;;13.25;46.60;104635.78;4956941;28;1082662;-52
2022/03/19 07:19:01;;;;;;;11.80;5.80;;;9.30;62.90;;;13.91;45.75;104643.84;4995649;28;20192;-53
2022/03/19 07:21:28;;;;;;;10.77;5.77;;;9.80;62.30;;;14.54;44.63;104646.72;4995724;28;20203;-51
2022/03/19 07:23:55;;;;;;;12.67;6.60;;;10.30;59.40;;;15.14;43.52;104646.06;4996215;28;20192;-53
2022/03/19 07:26:26;;;;;;;9.40;5.07;;;10.80;57.70;;;15.71;41.98;104641.94;5014106;28;20222;-50
2022/03/19 07:28:53;;;;;;;12.70;5.80;;;11.30;57.10;;;16.32;41.21;104637.34;5016576;28;20194;-50
2022/03/19 07:31:21;;;;;;;9.23;5.17;;;11.80;56.50;;;16.85;39.05;104634.13;5016281;28;20191;-51
2022/03/19 07:33:50;;;;;;;12.37;5.83;;;12.30;54.00;;;17.30;38.46;104627.81;5015668;28;20206;-51
2022/03/19 07:36:19;;;;;;;16.27;9.53;;;12.80;53.30;;;17.74;37.48;104623.38;5013714;28;20522;-51
2022/03/19 07:38:47;;;;;;;10.63;6.50;;;13.20;52.00;;;18.14;36.59;104635.09;5012868;28;20253;-50
2022/03/19 07:44:03;;;;;;;11.53;7.33;;;14.00;49.80;;;18.93;35.77;104622.00;4995100;28;20196;-52
2022/03/19 07:46:31;;;;;;;9.57;6.33;;;14.40;49.60;;;19.42;34.58;104612.38;4995207;28;20690;-52
2022/03/19 07:48:59;;;;;;;8.43;5.77;;;14.80;48.60;;;19.76;33.88;104613.66;4994814;28;20207;-54
2022/03/19 07:51:26;;;;;;;10.20;5.40;;;15.10;46.80;;;20.05;33.28;104609.16;4995062;28;20196;-52
2022/03/19 07:53:54;;;;;;;10.33;6.00;;;15.40;46.10;;;20.31;32.55;104613.94;5005969;28;20281;-52
2022/03/19 07:56:21;;;;;;;11.27;5.37;;;15.60;45.80;;;20.54;32.01;104605.44;5014231;28;20275;-54
2022/03/19 07:58:50;;;;;;;9.73;5.37;;;15.90;44.90;;;20.79;31.51;104609.31;5014320;28;20247;-51
2022/03/19 08:01:20;;;;;;;9.90;4.90;;;16.10;43.80;;;21.11;31.17;104599.03;5014322;28;20229;-53
2022/03/19 08:03:48;;;;;;;8.10;5.27;;;16.30;42.60;;;21.42;29.90;104597.72;5014476;28;20209;-54
2022/03/19 08:06:16;;;;;;;7.37;4.83;;;16.40;42.30;;;21.63;30.46;104599.28;5013596;28;20226;-54
2022/03/19 08:08:44;;;;;;;8.53;3.97;;;16.70;42.40;;;21.84;30.13;104602.50;4996227;28;20275;-52
2022/03/19 08:11:11;;;;;;;10.83;4.83;;;16.90;42.20;;;22.23;29.63;104598.47;4995081;28;20194;-52
2022/03/19 08:13:39;;;;;;;8.47;4.93;;;17.10;41.10;;;22.58;28.44;104603.72;4994480;28;20742;-50
2022/03/19 08:16:09;;;;;;;7.47;4.80;;;17.50;40.70;;;22.87;28.17;104593.50;4994131;28;20210;-53
2022/03/19 08:18:37;;;;;;;6.73;4.10;;;17.70;39.70;;;23.09;27.92;104599.31;4994661;28;20226;-50
2022/03/19 08:21:05;;;;;;;6.13;3.97;;;18.00;39.50;;;23.37;27.27;104596.22;4999213;28;20210;-54
2022/03/19 08:23:34;;;;;;;6.37;4.17;;;18.20;38.30;;;23.68;27.15;104587.56;5014233;28;20199;-53
2022/03/19 08:26:01;;;;;;;7.83;4.87;;;18.40;37.90;;;24.00;26.20;104593.78;5014014;28;20217;-54
2022/03/19 08:28:29;;;;;;;10.50;4.00;;;18.60;37.20;;;24.32;25.51;104592.09;5013503;28;20677;-53
2022/03/19 08:30:58;;;;;;;9.30;4.70;;;18.80;36.20;;;24.51;25.22;104597.91;5013457;28;20198;-53
2022/03/19 08:33:26;;;;;;;6.73;4.20;;;19.00;35.60;;;24.60;25.38;104587.97;5013365;28;20223;-54
2022/03/19 08:35:55;;;;;;;7.13;3.80;;;19.20;35.20;;;24.75;24.91;104578.13;5008335;28;20210;-51
2022/03/19 08:41:11;;;;;;;7.03;3.60;;;19.60;33.90;;;25.14;24.35;104573.59;5013917;28;20540;-55
2022/03/19 08:43:38;;;;;;;6.73;4.07;;;19.80;33.40;;;25.34;23.46;104577.50;5013578;28;20197;-56
2022/03/19 08:46:06;;;;;;;6.87;3.50;;;20.00;33.10;;;25.42;23.45;104572.06;5012133;28;20229;-51
2022/03/19 08:48:33;;;;;;;6.40;4.17;;;20.20;33.20;;;25.69;24.05;104577.97;5013509;28;20195;-53
2022/03/19 08:53:49;;;;;;;6.77;3.10;;;20.70;32.80;;;26.51;22.27;104566.19;5013762;28;20255;-54
2022/03/19 08:56:17;;;;;;;7.07;3.63;;;20.90;31.50;;;26.69;22.29;104564.81;5013022;28;20187;-53
2022/03/19 08:58:44;;;;;;;7.37;3.20;;;21.20;31.40;;;27.06;22.60;104565.69;5011170;28;20188;-54
2022/03/19 09:01:12;;;;;;;6.73;2.97;;;21.50;31.90;;;27.49;21.91;104564.72;4996679;28;20242;-54
2022/03/19 09:03:39;;;;;;;4.93;2.90;;;21.70;31.20;;;27.91;21.50;104570.09;5015595;28;20226;-55
2022/03/19 09:06:10;;;;;;;4.57;2.40;;;22.10;30.70;;;28.13;20.27;104568.22;5015484;28;20550;-54
2022/03/19 09:08:37;;;;;;;5.17;2.73;;;22.30;29.20;;;28.30;20.64;104569.59;5016912;28;20608;-54
2022/03/19 09:11:05;;;;;;;4.33;2.77;;;22.60;29.30;;;28.36;20.00;104573.38;5018518;28;20191;-55
2022/03/19 09:13:33;;;;;;;5.73;3.00;;;22.70;28.20;;;28.12;19.97;104561.94;5018822;28;20620;-56
2022/03/19 09:16:00;;;;;;;5.73;2.93;;;22.70;27.80;;;27.93;19.87;104561.78;5018613;28;20206;-53
2022/03/19 09:18:27;;;;;;;6.67;2.97;;;22.60;27.40;;;27.89;20.18;104555.06;5012696;28;20211;-54
2022/03/19 09:20:55;;;;;;;5.53;3.30;;;22.70;27.90;;;28.02;20.21;104556.06;5012918;28;20269;-52
2022/03/19 09:23:24;;;;;;;5.80;4.60;;;22.70;28.00;;;28.25;20.10;104554.94;5013135;28;20584;-53
2022/03/19 09:25:51;;;;;;;4.67;2.73;;;22.80;28.30;;;28.33;19.50;104552.91;5013286;28;20568;-53
2022/03/19 09:28:19;;;;;;;7.13;3.17;;;22.80;27.10;;;28.42;19.79;104545.44;5011748;28;20223;-56
2022/03/19 09:30:46;;;;;;;6.17;2.67;;;22.90;27.60;;;28.49;19.78;104540.91;5013698;28;20187;-54
2022/03/19 09:33:14;;;;;;;4.10;2.40;;;23.00;27.60;;;28.79;19.60;104534.16;5013026;28;20233;-53
2022/03/19 09:35:45;;;;;;;5.73;3.27;;;23.00;27.50;;;29.10;19.13;104534.47;5013590;28;20581;-54
2022/03/19 09:38:14;;;;;;;6.67;3.17;;;23.30;27.70;;;29.28;19.06;104537.47;5013012;28;20203;-54
2022/03/19 09:40:44;;;;;;;7.27;3.70;;;23.50;27.10;;;29.40;18.68;104541.25;5009013;28;20234;-55
2022/03/19 09:43:11;;;;;;;4.67;2.37;;;23.60;26.30;;;29.39;18.29;104536.00;4993944;28;20288;-56
2022/03/19 09:45:39;;;;;;;4.57;2.40;;;23.70;26.10;;;29.42;18.43;104536.44;4993834;28;20198;-55
2022/03/19 09:48:06;;;;;;;4.67;2.30;;;23.80;26.10;;;29.60;18.31;104527.66;4996217;28;20215;-55
2022/03/19 09:50:35;;;;;;;4.83;2.73;;;24.00;26.40;;;29.70;17.85;104519.09;4994338;28;20283;-52
2022/03/19 09:53:04;;;;;;;4.90;4.10;;;24.10;25.80;;;29.91;18.32;104513.44;4993242;28;20617;-52
2022/03/19 09:55:34;;;;;;;5.43;2.63;;;24.30;26.00;;;30.19;17.93;104519.44;5010713;28;20219;-53
2022/03/19 09:58:04;;;;;;;4.73;2.60;;;24.40;25.80;;;30.25;18.00;104521.31;5012688;28;20535;-53
2022/03/19 10:00:32;;;;;;;4.80;2.60;;;24.60;25.60;;;30.41;17.30;104512.72;5015424;28;20187;-52
2022/03/19 10:03:06;;;;;;;6.07;2.60;;;24.60;25.20;;;30.63;16.90;104511.38;5016619;28;20211;-53
2022/03/19 10:08:43;;;;;;;6.70;2.60;;;24.60;24.40;;;30.49;17.46;104498.88;5013282;28;20219;-55
2022/03/19 10:11:13;;;;;;;4.87;2.30;;;24.70;24.90;;;30.49;16.55;104501.59;4996944;28;20192;-53
2022/03/19 10:13:44;;;;;;;4.87;2.50;;;24.70;24.20;;;30.32;16.75;104502.25;4996866;28;20192;-54
2022/03/19 10:16:18;;;;;;;4.47;2.50;;;24.70;24.40;;;30.24;17.29;104503.31;5006021;28;20253;-56
2022/03/19 10:18:55;;;;;;;5.27;2.33;;;24.70;24.50;;;30.53;16.89;104494.66;5016880;28;20225;-54
2022/03/19 10:21:24;;;;;;;3.67;2.20;;;24.80;24.70;;;30.61;17.19;104496.31;5016487;28;20195;-55
2022/03/19 10:23:52;;;;;;;4.90;2.20;;;24.90;24.40;;;30.60;17.02;104497.34;5015693;28;20203;-53
2022/03/19 10:26:26;;;;;;;4.43;2.03;;;24.90;24.00;;;30.57;16.54;104493.16;5004528;28;20216;-55
2022/03/19 10:29:04;;;;;;;3.83;2.23;;;24.90;23.80;;;30.38;15.99;104490.56;5010025;28;20580;-53
2022/03/19 10:31:35;;;;;;;5.33;2.23;;;24.80;23.30;;;30.37;16.42;104484.28;5005015;28;20226;-53
2022/03/19 10:34:05;;;;;;;5.83;2.37;;;24.80;23.40;;;30.36;16.28;104477.16;5016125;28;20657;-54
2022/03/19 10:36:36;;;;;;;2.73;2.27;;;24.70;23.10;;;30.25;16.21;104479.69;5010151;28;20220;-55
2022/03/19 10:39:10;;;;;;;2.47;2.00;;;24.70;23.30;;;30.17;16.58;104473.44;4996461;28;20176;-53